Alamo, Indiana
Current Conditions -  °F | °C
As of 12:55 PM on Thursday 30 Oct 2014 (Local Time) from K4I7 Reporting Station
Clear Clear  
Wind Chill: 10°   Ceiling: Unl
Heat Index: 10°   Visibility: 10mi
Dew Point:   Wind: 3mph
Humidity: 54%   Direction: 210°SSW
Pressure: 30.15"   Gusts: NA
Location:  39.98°N, 87.06°W
Report Text: K4I7 301655Z AUTO 21003KT 10SM CLR 10/01 A3015 RMK AO2
Loading
Personal Weather Stations






























Interactive Weather Map
Tropical Storm Tracking
New forecast layout! Learn more

10-Day Weather Forecast

Advertisements
Track Severe Weather on mobile